sensor_id;sensor_type;location;lat;lon;timestamp;P1;durP1;ratioP1;P2;durP2;ratioP2
64063;SDS011;50314;50.618;10.642;2023-04-28T00:53:12;1.75;;;1.30;;
64063;SDS011;50314;50.618;10.642;2023-04-28T00:55:38;2.10;;;1.70;;
64063;SDS011;50314;50.618;10.642;2023-04-28T00:58:04;1.95;;;1.55;;
64063;SDS011;50314;50.618;10.642;2023-04-28T01:00:33;3.03;;;1.70;;
64063;SDS011;50314;50.618;10.642;2023-04-28T01:02:59;2.97;;;1.73;;
64063;SDS011;50314;50.618;10.642;2023-04-28T01:05:24;2.78;;;1.55;;
64063;SDS011;50314;50.618;10.642;2023-04-28T01:07:53;2.85;;;1.73;;
64063;SDS011;50314;50.618;10.642;2023-04-28T01:10:19;4.05;;;1.70;;
64063;SDS011;50314;50.618;10.642;2023-04-28T01:12:45;2.13;;;1.90;;
64063;SDS011;50314;50.618;10.642;2023-04-28T01:15:19;1.77;;;1.40;;
64063;SDS011;50314;50.618;10.642;2023-04-28T01:17:46;1.95;;;1.70;;
64063;SDS011;50314;50.618;10.642;2023-04-28T01:20:12;1.50;;;1.40;;
64063;SDS011;50314;50.618;10.642;2023-04-28T01:22:38;1.90;;;1.63;;
64063;SDS011;50314;50.618;10.642;2023-04-28T01:25:04;2.75;;;1.50;;
64063;SDS011;50314;50.618;10.642;2023-04-28T01:27:29;1.45;;;1.30;;
64063;SDS011;50314;50.618;10.642;2023-04-28T01:29:55;1.92;;;1.50;;
64063;SDS011;50314;50.618;10.642;2023-04-28T01:32:22;2.45;;;1.75;;
64063;SDS011;50314;50.618;10.642;2023-04-28T01:34:47;1.65;;;1.50;;
64063;SDS011;50314;50.618;10.642;2023-04-28T01:37:13;1.90;;;1.50;;
64063;SDS011;50314;50.618;10.642;2023-04-28T01:39:38;1.58;;;1.40;;
64063;SDS011;50314;50.618;10.642;2023-04-28T01:42:04;2.58;;;1.75;;
64063;SDS011;50314;50.618;10.642;2023-04-28T01:44:29;1.58;;;1.48;;
64063;SDS011;50314;50.618;10.642;2023-04-28T01:46:55;2.47;;;1.83;;
64063;SDS011;50314;50.618;10.642;2023-04-28T01:49:20;2.50;;;1.67;;
64063;SDS011;50314;50.618;10.642;2023-04-28T01:51:46;1.77;;;1.48;;
64063;SDS011;50314;50.618;10.642;2023-04-28T01:54:11;2.42;;;1.52;;
64063;SDS011;50314;50.618;10.642;2023-04-28T01:56:37;1.52;;;1.42;;
64063;SDS011;50314;50.618;10.642;2023-04-28T01:59:02;1.92;;;1.35;;
64063;SDS011;50314;50.618;10.642;2023-04-28T02:01:27;1.70;;;1.60;;
64063;SDS011;50314;50.618;10.642;2023-04-28T02:03:53;1.63;;;1.50;;
64063;SDS011;50314;50.618;10.642;2023-04-28T02:06:19;1.92;;;1.60;;
64063;SDS011;50314;50.618;10.642;2023-04-28T02:08:45;2.13;;;1.80;;
64063;SDS011;50314;50.618;10.642;2023-04-28T02:11:11;2.10;;;1.50;;
64063;SDS011;50314;50.618;10.642;2023-04-28T02:13:36;1.80;;;1.70;;
64063;SDS011;50314;50.618;10.642;2023-04-28T02:16:02;1.63;;;1.42;;
64063;SDS011;50314;50.618;10.642;2023-04-28T02:18:28;2.17;;;1.70;;
64063;SDS011;50314;50.618;10.642;2023-04-28T02:20:54;1.50;;;1.40;;
64063;SDS011;50314;50.618;10.642;2023-04-28T02:23:20;1.90;;;1.70;;
64063;SDS011;50314;50.618;10.642;2023-04-28T02:25:45;1.90;;;1.50;;
64063;SDS011;50314;50.618;10.642;2023-04-28T02:28:10;2.00;;;1.75;;
64063;SDS011;50314;50.618;10.642;2023-04-28T02:30:37;1.58;;;1.42;;
64063;SDS011;50314;50.618;10.642;2023-04-28T02:33:02;2.25;;;1.95;;
64063;SDS011;50314;50.618;10.642;2023-04-28T02:35:28;1.40;;;1.30;;
64063;SDS011;50314;50.618;10.642;2023-04-28T02:37:53;1.52;;;1.42;;
64063;SDS011;50314;50.618;10.642;2023-04-28T02:40:18;1.50;;;1.33;;
64063;SDS011;50314;50.618;10.642;2023-04-28T02:42:44;1.33;;;1.20;;
64063;SDS011;50314;50.618;10.642;2023-04-28T02:45:10;1.60;;;1.50;;
64063;SDS011;50314;50.618;10.642;2023-04-28T02:47:35;2.00;;;1.80;;
64063;SDS011;50314;50.618;10.642;2023-04-28T02:50:01;1.75;;;1.35;;
64063;SDS011;50314;50.618;10.642;2023-04-28T02:52:27;1.52;;;1.42;;
64063;SDS011;50314;50.618;10.642;2023-04-28T02:54:52;1.42;;;1.25;;
64063;SDS011;50314;50.618;10.642;2023-04-28T02:57:21;1.63;;;1.48;;
64063;SDS011;50314;50.618;10.642;2023-04-28T02:59:46;2.03;;;1.40;;
64063;SDS011;50314;50.618;10.642;2023-04-28T03:02:12;2.53;;;1.50;;
64063;SDS011;50314;50.618;10.642;2023-04-28T03:04:37;1.48;;;1.38;;
64063;SDS011;50314;50.618;10.642;2023-04-28T03:07:03;1.52;;;1.35;;
64063;SDS011;50314;50.618;10.642;2023-04-28T03:09:28;1.63;;;1.48;;
64063;SDS011;50314;50.618;10.642;2023-04-28T03:11:53;2.70;;;1.52;;
64063;SDS011;50314;50.618;10.642;2023-04-28T03:14:19;1.70;;;1.60;;
64063;SDS011;50314;50.618;10.642;2023-04-28T03:16:45;1.88;;;1.63;;
64063;SDS011;50314;50.618;10.642;2023-04-28T03:19:10;2.47;;;1.67;;
64063;SDS011;50314;50.618;10.642;2023-04-28T03:21:36;1.67;;;1.58;;
64063;SDS011;50314;50.618;10.642;2023-04-28T03:24:01;2.53;;;1.65;;
64063;SDS011;50314;50.618;10.642;2023-04-28T03:26:26;1.55;;;1.35;;
64063;SDS011;50314;50.618;10.642;2023-04-28T03:28:52;1.30;;;0.93;;
64063;SDS011;50314;50.618;10.642;2023-04-28T03:31:17;1.45;;;1.10;;
64063;SDS011;50314;50.618;10.642;2023-04-28T03:33:43;1.52;;;1.38;;
64063;SDS011;50314;50.618;10.642;2023-04-28T03:36:11;1.42;;;1.30;;
64063;SDS011;50314;50.618;10.642;2023-04-28T03:38:36;1.33;;;1.23;;
64063;SDS011;50314;50.618;10.642;2023-04-28T03:41:01;1.33;;;1.08;;
64063;SDS011;50314;50.618;10.642;2023-04-28T03:43:27;1.35;;;1.25;;
64063;SDS011;50314;50.618;10.642;2023-04-28T03:45:52;1.50;;;1.25;;
64063;SDS011;50314;50.618;10.642;2023-04-28T03:48:18;1.40;;;1.30;;
64063;SDS011;50314;50.618;10.642;2023-04-28T03:50:43;1.50;;;1.40;;
64063;SDS011;50314;50.618;10.642;2023-04-28T03:53:12;1.77;;;1.40;;
64063;SDS011;50314;50.618;10.642;2023-04-28T03:55:37;1.88;;;1.25;;
64063;SDS011;50314;50.618;10.642;2023-04-28T03:58:02;1.75;;;1.48;;
64063;SDS011;50314;50.618;10.642;2023-04-28T04:00:28;1.75;;;1.38;;
64063;SDS011;50314;50.618;10.642;2023-04-28T04:02:53;1.25;;;1.15;;
64063;SDS011;50314;50.618;10.642;2023-04-28T04:05:19;2.38;;;1.50;;
64063;SDS011;50314;50.618;10.642;2023-04-28T04:07:44;1.67;;;1.58;;
64063;SDS011;50314;50.618;10.642;2023-04-28T04:10:10;1.55;;;1.35;;
64063;SDS011;50314;50.618;10.642;2023-04-28T04:12:35;1.45;;;1.35;;
64063;SDS011;50314;50.618;10.642;2023-04-28T04:15:01;1.70;;;1.40;;
64063;SDS011;50314;50.618;10.642;2023-04-28T04:17:26;1.52;;;1.20;;
64063;SDS011;50314;50.618;10.642;2023-04-28T04:19:52;1.30;;;0.93;;
64063;SDS011;50314;50.618;10.642;2023-04-28T04:22:17;1.25;;;1.15;;
64063;SDS011;50314;50.618;10.642;2023-04-28T04:24:43;1.30;;;1.20;;
64063;SDS011;50314;50.618;10.642;2023-04-28T04:27:08;1.30;;;1.20;;
64063;SDS011;50314;50.618;10.642;2023-04-28T04:29:34;1.60;;;1.50;;
64063;SDS011;50314;50.618;10.642;2023-04-28T04:31:59;1.95;;;1.40;;
64063;SDS011;50314;50.618;10.642;2023-04-28T04:34:24;2.45;;;1.27;;
64063;SDS011;50314;50.618;10.642;2023-04-28T04:36:50;1.42;;;1.30;;
64063;SDS011;50314;50.618;10.642;2023-04-28T04:39:15;1.50;;;1.40;;
64063;SDS011;50314;50.618;10.642;2023-04-28T04:41:41;1.33;;;1.23;;
64063;SDS011;50314;50.618;10.642;2023-04-28T04:44:06;1.10;;;1.00;;
64063;SDS011;50314;50.618;10.642;2023-04-28T04:46:32;1.33;;;1.23;;
64063;SDS011;50314;50.618;10.642;2023-04-28T04:48:57;1.70;;;1.30;;
64063;SDS011;50314;50.618;10.642;2023-04-28T04:51:23;1.65;;;1.38;;
64063;SDS011;50314;50.618;10.642;2023-04-28T04:53:48;1.90;;;1.60;;
64063;SDS011;50314;50.618;10.642;2023-04-28T04:56:14;1.40;;;1.23;;
64063;SDS011;50314;50.618;10.642;2023-04-28T04:58:41;1.50;;;1.38;;
64063;SDS011;50314;50.618;10.642;2023-04-28T05:01:08;1.52;;;1.33;;
64063;SDS011;50314;50.618;10.642;2023-04-28T05:03:34;1.42;;;1.33;;
64063;SDS011;50314;50.618;10.642;2023-04-28T05:05:59;3.05;;;1.75;;
64063;SDS011;50314;50.618;10.642;2023-04-28T05:10:52;1.40;;;1.30;;
64063;SDS011;50314;50.618;10.642;2023-04-28T05:13:17;1.50;;;1.40;;
64063;SDS011;50314;50.618;10.642;2023-04-28T05:15:43;1.50;;;1.40;;
64063;SDS011;50314;50.618;10.642;2023-04-28T05:18:08;1.75;;;1.38;;
64063;SDS011;50314;50.618;10.642;2023-04-28T05:20:35;1.70;;;1.30;;
64063;SDS011;50314;50.618;10.642;2023-04-28T05:23:01;1.50;;;1.20;;
64063;SDS011;50314;50.618;10.642;2023-04-28T05:25:27;1.75;;;1.50;;
64063;SDS011;50314;50.618;10.642;2023-04-28T05:27:52;1.45;;;1.33;;
64063;SDS011;50314;50.618;10.642;2023-04-28T05:30:18;2.15;;;1.23;;
64063;SDS011;50314;50.618;10.642;2023-04-28T05:32:44;1.42;;;1.30;;
64063;SDS011;50314;50.618;10.642;2023-04-28T05:35:09;1.92;;;1.40;;
64063;SDS011;50314;50.618;10.642;2023-04-28T05:37:35;1.30;;;1.20;;
64063;SDS011;50314;50.618;10.642;2023-04-28T05:40:01;1.42;;;1.17;;
64063;SDS011;50314;50.618;10.642;2023-04-28T05:42:27;1.45;;;1.35;;
64063;SDS011;50314;50.618;10.642;2023-04-28T05:44:53;1.80;;;1.20;;
64063;SDS011;50314;50.618;10.642;2023-04-28T05:47:18;2.63;;;1.98;;
64063;SDS011;50314;50.618;10.642;2023-04-28T05:49:44;1.48;;;1.38;;
64063;SDS011;50314;50.618;10.642;2023-04-28T05:52:09;1.60;;;1.42;;
64063;SDS011;50314;50.618;10.642;2023-04-28T05:54:34;1.95;;;1.25;;
64063;SDS011;50314;50.618;10.642;2023-04-28T05:57:00;1.67;;;1.40;;
64063;SDS011;50314;50.618;10.642;2023-04-28T05:59:26;1.30;;;1.20;;
64063;SDS011;50314;50.618;10.642;2023-04-28T06:01:52;1.70;;;1.60;;
64063;SDS011;50314;50.618;10.642;2023-04-28T06:04:18;1.30;;;1.20;;
64063;SDS011;50314;50.618;10.642;2023-04-28T06:06:43;1.73;;;1.52;;
64063;SDS011;50314;50.618;10.642;2023-04-28T06:09:09;1.88;;;1.48;;
64063;SDS011;50314;50.618;10.642;2023-04-28T06:11:34;2.10;;;1.42;;
64063;SDS011;50314;50.618;10.642;2023-04-28T06:14:00;1.90;;;1.40;;
64063;SDS011;50314;50.618;10.642;2023-04-28T06:16:25;1.30;;;1.15;;
64063;SDS011;50314;50.618;10.642;2023-04-28T06:18:51;1.80;;;1.50;;
64063;SDS011;50314;50.618;10.642;2023-04-28T06:21:17;2.10;;;1.40;;
64063;SDS011;50314;50.618;10.642;2023-04-28T06:23:43;1.38;;;1.27;;
64063;SDS011;50314;50.618;10.642;2023-04-28T06:26:08;1.58;;;1.42;;
64063;SDS011;50314;50.618;10.642;2023-04-28T06:28:34;1.95;;;1.50;;
64063;SDS011;50314;50.618;10.642;2023-04-28T06:31:00;2.40;;;1.60;;
64063;SDS011;50314;50.618;10.642;2023-04-28T06:33:25;2.28;;;1.70;;
64063;SDS011;50314;50.618;10.642;2023-04-28T06:35:51;2.67;;;2.05;;
64063;SDS011;50314;50.618;10.642;2023-04-28T06:38:17;2.72;;;1.90;;
64063;SDS011;50314;50.618;10.642;2023-04-28T06:40:42;2.45;;;2.20;;
64063;SDS011;50314;50.618;10.642;2023-04-28T06:43:09;4.50;;;2.00;;
64063;SDS011;50314;50.618;10.642;2023-04-28T06:45:35;3.05;;;2.22;;
64063;SDS011;50314;50.618;10.642;2023-04-28T06:48:01;2.90;;;2.10;;
64063;SDS011;50314;50.618;10.642;2023-04-28T06:50:26;3.42;;;2.28;;
64063;SDS011;50314;50.618;10.642;2023-04-28T06:52:51;3.28;;;2.10;;
64063;SDS011;50314;50.618;10.642;2023-04-28T06:55:17;3.15;;;2.20;;
64063;SDS011;50314;50.618;10.642;2023-04-28T06:57:43;3.00;;;2.20;;
64063;SDS011;50314;50.618;10.642;2023-04-28T07:00:08;4.07;;;2.33;;
64063;SDS011;50314;50.618;10.642;2023-04-28T07:02:34;3.83;;;2.33;;
64063;SDS011;50314;50.618;10.642;2023-04-28T07:05:01;2.80;;;2.03;;
64063;SDS011;50314;50.618;10.642;2023-04-28T07:07:27;3.80;;;2.40;;
64063;SDS011;50314;50.618;10.642;2023-04-28T07:09:53;3.15;;;2.50;;
64063;SDS011;50314;50.618;10.642;2023-04-28T07:12:19;2.85;;;1.98;;
64063;SDS011;50314;50.618;10.642;2023-04-28T07:14:48;3.20;;;2.20;;
64063;SDS011;50314;50.618;10.642;2023-04-28T07:17:14;3.53;;;2.72;;
64063;SDS011;50314;50.618;10.642;2023-04-28T07:19:40;3.47;;;2.28;;
64063;SDS011;50314;50.618;10.642;2023-04-28T07:22:06;4.20;;;2.30;;
64063;SDS011;50314;50.618;10.642;2023-04-28T07:24:31;3.47;;;2.13;;
64063;SDS011;50314;50.618;10.642;2023-04-28T07:26:57;2.85;;;2.25;;
64063;SDS011;50314;50.618;10.642;2023-04-28T07:29:23;3.42;;;2.50;;
64063;SDS011;50314;50.618;10.642;2023-04-28T07:31:48;3.05;;;2.40;;
64063;SDS011;50314;50.618;10.642;2023-04-28T07:34:14;4.28;;;2.25;;
64063;SDS011;50314;50.618;10.642;2023-04-28T07:36:40;3.50;;;2.20;;
64063;SDS011;50314;50.618;10.642;2023-04-28T07:39:06;3.35;;;2.17;;
64063;SDS011;50314;50.618;10.642;2023-04-28T07:41:35;3.42;;;2.47;;
64063;SDS011;50314;50.618;10.642;2023-04-28T07:44:02;3.55;;;2.50;;
64063;SDS011;50314;50.618;10.642;2023-04-28T07:46:29;3.70;;;2.83;;
64063;SDS011;50314;50.618;10.642;2023-04-28T07:48:55;3.75;;;2.40;;
64063;SDS011;50314;50.618;10.642;2023-04-28T07:51:20;4.13;;;2.67;;
64063;SDS011;50314;50.618;10.642;2023-04-28T07:53:46;3.25;;;2.38;;
64063;SDS011;50314;50.618;10.642;2023-04-28T07:56:14;5.57;;;3.03;;
64063;SDS011;50314;50.618;10.642;2023-04-28T07:58:40;4.55;;;3.20;;
64063;SDS011;50314;50.618;10.642;2023-04-28T08:01:05;3.10;;;2.42;;
64063;SDS011;50314;50.618;10.642;2023-04-28T08:03:31;3.58;;;2.28;;
64063;SDS011;50314;50.618;10.642;2023-04-28T08:05:57;5.50;;;3.40;;
64063;SDS011;50314;50.618;10.642;2023-04-28T08:08:22;3.97;;;3.00;;
64063;SDS011;50314;50.618;10.642;2023-04-28T08:10:48;4.95;;;2.75;;
64063;SDS011;50314;50.618;10.642;2023-04-28T08:13:14;4.10;;;2.78;;
64063;SDS011;50314;50.618;10.642;2023-04-28T08:15:40;2.65;;;2.30;;
64063;SDS011;50314;50.618;10.642;2023-04-28T08:18:06;3.58;;;2.65;;
64063;SDS011;50314;50.618;10.642;2023-04-28T08:20:31;4.63;;;2.55;;
64063;SDS011;50314;50.618;10.642;2023-04-28T08:22:57;3.15;;;2.17;;
64063;SDS011;50314;50.618;10.642;2023-04-28T08:25:23;3.58;;;2.80;;
64063;SDS011;50314;50.618;10.642;2023-04-28T08:27:48;3.95;;;2.55;;
64063;SDS011;50314;50.618;10.642;2023-04-28T08:30:14;4.05;;;2.70;;
64063;SDS011;50314;50.618;10.642;2023-04-28T08:32:39;3.22;;;2.42;;
64063;SDS011;50314;50.618;10.642;2023-04-28T08:35:05;3.55;;;2.47;;
64063;SDS011;50314;50.618;10.642;2023-04-28T08:37:31;3.70;;;2.72;;
64063;SDS011;50314;50.618;10.642;2023-04-28T08:39:56;2.80;;;2.42;;
64063;SDS011;50314;50.618;10.642;2023-04-28T08:42:33;3.70;;;2.20;;
64063;SDS011;50314;50.618;10.642;2023-04-28T08:45:00;5.47;;;3.00;;
64063;SDS011;50314;50.618;10.642;2023-04-28T08:47:32;3.08;;;2.45;;
64063;SDS011;50314;50.618;10.642;2023-04-28T08:50:09;3.50;;;2.10;;
64063;SDS011;50314;50.618;10.642;2023-04-28T08:55:06;2.83;;;2.20;;
64063;SDS011;50314;50.618;10.642;2023-04-28T09:00:05;3.13;;;2.15;;
64063;SDS011;50314;50.618;10.642;2023-04-28T09:02:31;3.22;;;2.40;;
64063;SDS011;50314;50.618;10.642;2023-04-28T09:04:57;3.30;;;2.33;;
64063;SDS011;50314;50.618;10.642;2023-04-28T09:07:22;3.78;;;2.45;;
64063;SDS011;50314;50.618;10.642;2023-04-28T09:09:48;3.08;;;2.70;;
64063;SDS011;50314;50.618;10.642;2023-04-28T09:12:13;3.15;;;2.20;;
64063;SDS011;50314;50.618;10.642;2023-04-28T09:14:39;3.55;;;2.40;;
64063;SDS011;50314;50.618;10.642;2023-04-28T09:17:11;3.88;;;2.30;;
64063;SDS011;50314;50.618;10.642;2023-04-28T09:19:38;4.40;;;2.40;;
64063;SDS011;50314;50.618;10.642;2023-04-28T09:22:06;3.08;;;2.75;;
64063;SDS011;50314;50.618;10.642;2023-04-28T09:24:33;2.78;;;2.58;;
64063;SDS011;50314;50.618;10.642;2023-04-28T09:27:05;4.03;;;3.22;;
64063;SDS011;50314;50.618;10.642;2023-04-28T09:29:47;4.57;;;3.17;;
64063;SDS011;50314;50.618;10.642;2023-04-28T09:34:44;3.90;;;3.13;;
64063;SDS011;50314;50.618;10.642;2023-04-28T09:37:17;4.93;;;3.10;;
64063;SDS011;50314;50.618;10.642;2023-04-28T09:39:48;3.70;;;3.08;;
64063;SDS011;50314;50.618;10.642;2023-04-28T09:45:03;3.75;;;3.38;;
64063;SDS011;50314;50.618;10.642;2023-04-28T09:47:33;3.53;;;2.75;;
64063;SDS011;50314;50.618;10.642;2023-04-28T09:50:04;3.85;;;3.22;;
64063;SDS011;50314;50.618;10.642;2023-04-28T09:52:33;4.30;;;3.22;;
64063;SDS011;50314;50.618;10.642;2023-04-28T09:55:04;4.22;;;3.00;;
64063;SDS011;50314;50.618;10.642;2023-04-28T09:57:35;4.32;;;3.47;;
64063;SDS011;50314;50.618;10.642;2023-04-28T10:00:01;4.10;;;3.33;;
64063;SDS011;50314;50.618;10.642;2023-04-28T10:02:30;3.35;;;2.95;;
64063;SDS011;50314;50.618;10.642;2023-04-28T10:04:57;3.53;;;2.75;;
64063;SDS011;50314;50.618;10.642;2023-04-28T10:07:27;4.18;;;2.67;;
64063;SDS011;50314;50.618;10.642;2023-04-28T10:09:54;3.35;;;2.55;;
64063;SDS011;50314;50.618;10.642;2023-04-28T10:12:20;3.75;;;3.00;;
64063;SDS011;50314;50.618;10.642;2023-04-28T10:17:22;3.03;;;2.50;;
64063;SDS011;50314;50.618;10.642;2023-04-28T10:19:53;3.35;;;2.88;;
64063;SDS011;50314;50.618;10.642;2023-04-28T10:28:03;4.03;;;2.75;;
64063;SDS011;50314;50.618;10.642;2023-04-28T10:30:31;3.25;;;2.72;;
64063;SDS011;50314;50.618;10.642;2023-04-28T10:38:08;3.97;;;2.85;;
64063;SDS011;50314;50.618;10.642;2023-04-28T10:40:52;4.82;;;3.05;;
64063;SDS011;50314;50.618;10.642;2023-04-28T10:56:18;3.88;;;3.10;;
64063;SDS011;50314;50.618;10.642;2023-04-28T10:58:56;3.50;;;2.95;;
64063;SDS011;50314;50.618;10.642;2023-04-28T11:01:31;3.15;;;2.70;;
64063;SDS011;50314;50.618;10.642;2023-04-28T11:04:05;3.33;;;3.00;;
64063;SDS011;50314;50.618;10.642;2023-04-28T11:12:24;3.67;;;2.50;;
64063;SDS011;50314;50.618;10.642;2023-04-28T11:19:41;3.80;;;2.90;;
64063;SDS011;50314;50.618;10.642;2023-04-28T11:24:57;2.67;;;2.45;;
64063;SDS011;50314;50.618;10.642;2023-04-28T11:27:28;3.30;;;2.60;;
64063;SDS011;50314;50.618;10.642;2023-04-28T11:29:57;2.65;;;2.45;;
64063;SDS011;50314;50.618;10.642;2023-04-28T11:32:27;2.35;;;2.15;;
64063;SDS011;50314;50.618;10.642;2023-04-28T11:34:53;3.70;;;2.92;;
64063;SDS011;50314;50.618;10.642;2023-04-28T11:37:19;3.10;;;2.78;;
64063;SDS011;50314;50.618;10.642;2023-04-28T11:39:45;3.40;;;3.10;;
64063;SDS011;50314;50.618;10.642;2023-04-28T11:42:14;3.42;;;2.60;;
64063;SDS011;50314;50.618;10.642;2023-04-28T11:44:49;2.63;;;2.42;;
64063;SDS011;50314;50.618;10.642;2023-04-28T11:50:13;2.70;;;2.45;;
64063;SDS011;50314;50.618;10.642;2023-04-28T11:52:48;3.53;;;3.00;;
64063;SDS011;50314;50.618;10.642;2023-04-28T11:55:15;4.05;;;3.30;;
64063;SDS011;50314;50.618;10.642;2023-04-28T11:57:41;3.40;;;3.10;;
64063;SDS011;50314;50.618;10.642;2023-04-28T12:00:12;3.50;;;3.05;;
64063;SDS011;50314;50.618;10.642;2023-04-28T12:02:38;3.10;;;2.78;;
64063;SDS011;50314;50.618;10.642;2023-04-28T12:05:06;4.40;;;2.90;;
64063;SDS011;50314;50.618;10.642;2023-04-28T12:07:41;3.67;;;2.75;;
64063;SDS011;50314;50.618;10.642;2023-04-28T12:10:14;4.05;;;3.13;;
64063;SDS011;50314;50.618;10.642;2023-04-28T12:12:40;5.60;;;2.95;;
64063;SDS011;50314;50.618;10.642;2023-04-28T12:15:07;2.95;;;2.70;;
64063;SDS011;50314;50.618;10.642;2023-04-28T12:17:34;3.75;;;2.92;;
64063;SDS011;50314;50.618;10.642;2023-04-28T12:20:00;4.50;;;3.25;;
64063;SDS011;50314;50.618;10.642;2023-04-28T12:22:27;3.22;;;2.85;;
64063;SDS011;50314;50.618;10.642;2023-04-28T12:27:36;3.85;;;3.25;;
64063;SDS011;50314;50.618;10.642;2023-04-28T12:32:45;3.05;;;2.75;;
64063;SDS011;50314;50.618;10.642;2023-04-28T12:35:11;3.42;;;2.70;;
64063;SDS011;50314;50.618;10.642;2023-04-28T12:37:37;3.65;;;2.78;;
64063;SDS011;50314;50.618;10.642;2023-04-28T12:40:04;3.42;;;2.70;;
64063;SDS011;50314;50.618;10.642;2023-04-28T12:42:32;3.17;;;2.88;;
64063;SDS011;50314;50.618;10.642;2023-04-28T12:44:58;4.13;;;2.53;;
64063;SDS011;50314;50.618;10.642;2023-04-28T12:47:24;3.03;;;2.70;;
64063;SDS011;50314;50.618;10.642;2023-04-28T12:49:49;3.17;;;2.60;;
64063;SDS011;50314;50.618;10.642;2023-04-28T12:52:17;3.25;;;2.83;;
64063;SDS011;50314;50.618;10.642;2023-04-28T12:54:47;2.85;;;2.58;;
64063;SDS011;50314;50.618;10.642;2023-04-28T12:57:16;3.40;;;2.92;;
64063;SDS011;50314;50.618;10.642;2023-04-28T12:59:43;2.95;;;2.58;;
64063;SDS011;50314;50.618;10.642;2023-04-28T13:02:09;2.60;;;2.40;;
64063;SDS011;50314;50.618;10.642;2023-04-28T13:04:34;3.45;;;2.25;;
64063;SDS011;50314;50.618;10.642;2023-04-28T13:07:00;2.58;;;2.38;;
64063;SDS011;50314;50.618;10.642;2023-04-28T13:09:26;3.05;;;2.60;;
64063;SDS011;50314;50.618;10.642;2023-04-28T13:11:52;3.03;;;2.72;;
64063;SDS011;50314;50.618;10.642;2023-04-28T13:14:20;3.30;;;3.00;;
64063;SDS011;50314;50.618;10.642;2023-04-28T13:16:49;2.85;;;2.65;;
64063;SDS011;50314;50.618;10.642;2023-04-28T13:19:16;2.90;;;2.45;;
64063;SDS011;50314;50.618;10.642;2023-04-28T13:21:44;3.20;;;2.50;;
64063;SDS011;50314;50.618;10.642;2023-04-28T13:24:11;2.42;;;2.20;;
64063;SDS011;50314;50.618;10.642;2023-04-28T13:26:37;2.50;;;2.20;;
64063;SDS011;50314;50.618;10.642;2023-04-28T13:29:03;3.28;;;2.40;;
64063;SDS011;50314;50.618;10.642;2023-04-28T13:31:30;2.97;;;2.47;;
64063;SDS011;50314;50.618;10.642;2023-04-28T13:33:56;3.80;;;2.55;;
64063;SDS011;50314;50.618;10.642;2023-04-28T13:36:26;3.17;;;2.67;;
64063;SDS011;50314;50.618;10.642;2023-04-28T13:38:53;2.63;;;2.42;;
64063;SDS011;50314;50.618;10.642;2023-04-28T13:41:22;3.03;;;2.72;;
64063;SDS011;50314;50.618;10.642;2023-04-28T13:43:47;3.08;;;2.78;;
64063;SDS011;50314;50.618;10.642;2023-04-28T13:46:13;3.95;;;3.13;;
64063;SDS011;50314;50.618;10.642;2023-04-28T13:48:40;3.55;;;3.10;;
64063;SDS011;50314;50.618;10.642;2023-04-28T13:51:10;3.60;;;2.67;;
64063;SDS011;50314;50.618;10.642;2023-04-28T13:53:36;3.08;;;2.78;;
64063;SDS011;50314;50.618;10.642;2023-04-28T13:56:04;3.55;;;3.10;;
64063;SDS011;50314;50.618;10.642;2023-04-28T13:58:33;2.55;;;2.30;;
64063;SDS011;50314;50.618;10.642;2023-04-28T14:00:58;3.13;;;2.53;;
64063;SDS011;50314;50.618;10.642;2023-04-28T14:03:24;2.75;;;2.45;;
64063;SDS011;50314;50.618;10.642;2023-04-28T14:05:53;3.53;;;2.92;;
64063;SDS011;50314;50.618;10.642;2023-04-28T14:08:21;2.90;;;2.33;;
64063;SDS011;50314;50.618;10.642;2023-04-28T14:10:47;3.35;;;2.75;;
64063;SDS011;50314;50.618;10.642;2023-04-28T14:13:14;2.90;;;2.63;;
64063;SDS011;50314;50.618;10.642;2023-04-28T14:15:40;2.80;;;2.60;;
64063;SDS011;50314;50.618;10.642;2023-04-28T14:18:08;3.40;;;3.10;;
64063;SDS011;50314;50.618;10.642;2023-04-28T14:20:35;3.17;;;2.58;;
64063;SDS011;50314;50.618;10.642;2023-04-28T14:23:02;2.28;;;2.08;;
64063;SDS011;50314;50.618;10.642;2023-04-28T14:25:27;2.50;;;2.28;;
64063;SDS011;50314;50.618;10.642;2023-04-28T14:27:55;3.05;;;2.78;;
64063;SDS011;50314;50.618;10.642;2023-04-28T14:30:27;3.60;;;3.15;;
64063;SDS011;50314;50.618;10.642;2023-04-28T14:32:57;3.33;;;3.10;;
64063;SDS011;50314;50.618;10.642;2023-04-28T14:35:23;3.03;;;2.72;;
64063;SDS011;50314;50.618;10.642;2023-04-28T14:37:49;2.80;;;2.60;;
64063;SDS011;50314;50.618;10.642;2023-04-28T14:40:16;3.25;;;2.75;;
64063;SDS011;50314;50.618;10.642;2023-04-28T14:42:41;2.92;;;2.72;;
64063;SDS011;50314;50.618;10.642;2023-04-28T14:45:08;3.40;;;3.10;;
64063;SDS011;50314;50.618;10.642;2023-04-28T14:50:00;3.30;;;2.63;;
64063;SDS011;50314;50.618;10.642;2023-04-28T14:52:29;3.05;;;2.42;;
64063;SDS011;50314;50.618;10.642;2023-04-28T14:54:56;2.50;;;2.30;;
64063;SDS011;50314;50.618;10.642;2023-04-28T14:57:23;3.03;;;2.72;;
64063;SDS011;50314;50.618;10.642;2023-04-28T14:59:50;3.03;;;2.72;;
64063;SDS011;50314;50.618;10.642;2023-04-28T15:02:19;3.00;;;2.80;;
64063;SDS011;50314;50.618;10.642;2023-04-28T15:04:50;3.10;;;2.80;;
64063;SDS011;50314;50.618;10.642;2023-04-28T15:07:16;2.80;;;2.50;;
64063;SDS011;50314;50.618;10.642;2023-04-28T15:09:47;3.25;;;2.60;;
64063;SDS011;50314;50.618;10.642;2023-04-28T15:12:13;3.25;;;2.95;;
64063;SDS011;50314;50.618;10.642;2023-04-28T15:14:39;2.88;;;2.58;;
64063;SDS011;50314;50.618;10.642;2023-04-28T15:17:05;2.83;;;2.63;;
64063;SDS011;50314;50.618;10.642;2023-04-28T15:19:30;2.50;;;2.30;;
64063;SDS011;50314;50.618;10.642;2023-04-28T15:21:56;3.35;;;3.00;;
64063;SDS011;50314;50.618;10.642;2023-04-28T15:24:22;2.45;;;2.25;;
64063;SDS011;50314;50.618;10.642;2023-04-28T15:26:50;2.97;;;2.30;;
64063;SDS011;50314;50.618;10.642;2023-04-28T15:29:15;3.33;;;3.03;;
64063;SDS011;50314;50.618;10.642;2023-04-28T15:31:41;2.58;;;2.38;;
64063;SDS011;50314;50.618;10.642;2023-04-28T15:34:09;3.30;;;2.63;;
64063;SDS011;50314;50.618;10.642;2023-04-28T15:36:37;2.95;;;2.22;;
64063;SDS011;50314;50.618;10.642;2023-04-28T15:39:03;2.28;;;1.65;;
64063;SDS011;50314;50.618;10.642;2023-04-28T15:41:30;2.67;;;2.00;;
64063;SDS011;50314;50.618;10.642;2023-04-28T15:46:24;1.83;;;1.58;;
64063;SDS011;50314;50.618;10.642;2023-04-28T15:48:50;2.30;;;1.63;;
64063;SDS011;50314;50.618;10.642;2023-04-28T15:51:16;2.38;;;1.90;;
64063;SDS011;50314;50.618;10.642;2023-04-28T15:53:42;1.98;;;1.70;;
64063;SDS011;50314;50.618;10.642;2023-04-28T15:56:08;2.42;;;2.03;;
64063;SDS011;50314;50.618;10.642;2023-04-28T15:58:33;2.15;;;1.80;;
64063;SDS011;50314;50.618;10.642;2023-04-28T16:00:59;2.30;;;1.77;;
64063;SDS011;50314;50.618;10.642;2023-04-28T16:03:25;1.70;;;1.50;;
64063;SDS011;50314;50.618;10.642;2023-04-28T16:05:54;1.90;;;1.50;;
64063;SDS011;50314;50.618;10.642;2023-04-28T16:08:20;1.60;;;1.50;;
64063;SDS011;50314;50.618;10.642;2023-04-28T16:10:50;1.60;;;1.50;;
64063;SDS011;50314;50.618;10.642;2023-04-28T16:13:16;2.50;;;1.92;;
64063;SDS011;50314;50.618;10.642;2023-04-28T16:15:42;2.47;;;1.77;;
64063;SDS011;50314;50.618;10.642;2023-04-28T16:18:08;2.13;;;1.75;;
64063;SDS011;50314;50.618;10.642;2023-04-28T16:20:33;3.33;;;2.17;;
64063;SDS011;50314;50.618;10.642;2023-04-28T16:22:59;2.55;;;1.90;;
64063;SDS011;50314;50.618;10.642;2023-04-28T16:25:25;2.05;;;1.75;;
64063;SDS011;50314;50.618;10.642;2023-04-28T16:27:50;1.90;;;1.70;;